createdAt,value
2023-04-02T00:01:18.647Z,2.28
2023-04-02T00:03:45.150Z,1.98
2023-04-02T00:06:35.098Z,1.85
2023-04-02T00:09:05.854Z,1.50
2023-04-02T00:11:35.964Z,1.35
2023-04-02T00:14:03.990Z,1.27
2023-04-02T00:16:30.645Z,1.20
2023-04-02T00:19:00.004Z,1.10
2023-04-02T00:21:31.254Z,1.20
2023-04-02T00:23:59.484Z,1.38
2023-04-02T00:26:33.963Z,1.50
2023-04-02T00:29:01.016Z,1.30
2023-04-02T00:31:27.542Z,1.10
2023-04-02T00:33:54.623Z,2.35
2023-04-02T00:36:22.198Z,1.10
2023-04-02T00:38:48.986Z,0.95
2023-04-02T00:41:18.235Z,1.00
2023-04-02T00:43:46.752Z,1.33
2023-04-02T00:46:17.466Z,1.73
2023-04-02T00:51:24.876Z,1.30
2023-04-02T00:53:53.802Z,1.65
2023-04-02T00:56:32.165Z,1.60
2023-04-02T00:59:00.873Z,1.45
2023-04-02T01:01:36.772Z,1.40
2023-04-02T01:04:05.676Z,1.65
2023-04-02T01:06:34.224Z,1.50
2023-04-02T01:09:07.925Z,1.35
2023-04-02T01:11:34.302Z,1.30
2023-04-02T01:14:29.747Z,1.48
2023-04-02T01:17:03.441Z,1.20
2023-04-02T01:19:49.050Z,1.60
2023-04-02T01:22:15.427Z,1.45
2023-04-02T01:24:43.997Z,1.60
2023-04-02T01:27:25.879Z,1.60
2023-04-02T01:29:57.706Z,1.60
2023-04-02T01:32:25.874Z,1.20
2023-04-02T01:34:52.816Z,1.80
2023-04-02T01:37:37.733Z,1.60
2023-04-02T01:40:05.571Z,1.30
2023-04-02T01:42:41.638Z,2.17
2023-04-02T01:45:11.016Z,1.58
2023-04-02T01:47:37.842Z,1.40
2023-04-02T01:50:11.332Z,1.20
2023-04-02T01:52:39.525Z,1.70
2023-04-02T01:55:07.079Z,1.30
2023-04-02T01:57:33.922Z,1.42
2023-04-02T02:00:02.024Z,1.40
2023-04-02T02:02:28.708Z,1.15
2023-04-02T02:04:55.522Z,1.40
2023-04-02T02:07:22.010Z,1.42
2023-04-02T02:09:49.050Z,1.98
2023-04-02T02:12:16.088Z,1.25
2023-04-02T02:14:46.152Z,1.73
2023-04-02T02:17:15.356Z,1.85
2023-04-02T02:19:46.776Z,2.22
2023-04-02T02:22:25.754Z,1.50
2023-04-02T02:24:52.451Z,1.65
2023-04-02T02:27:22.516Z,1.63
2023-04-02T02:29:54.324Z,1.80
2023-04-02T02:32:22.256Z,1.88
2023-04-02T02:34:54.340Z,1.50
2023-04-02T02:37:26.407Z,2.65
2023-04-02T02:39:54.998Z,1.58
2023-04-02T02:42:30.676Z,1.55
2023-04-02T02:44:58.165Z,1.45
2023-04-02T02:47:31.033Z,1.48
2023-04-02T02:49:59.374Z,1.70
2023-04-02T02:52:30.906Z,1.42
2023-04-02T02:55:03.192Z,1.83
2023-04-02T02:57:32.362Z,1.50
2023-04-02T03:00:00.288Z,1.70
2023-04-02T03:02:28.117Z,1.50
2023-04-02T03:04:55.454Z,1.60
2023-04-02T03:07:25.583Z,1.55
2023-04-02T03:10:09.728Z,1.50
2023-04-02T03:12:54.824Z,1.70
2023-04-02T03:15:33.599Z,1.83
2023-04-02T03:18:25.946Z,1.67
2023-04-02T03:20:55.015Z,1.48
2023-04-02T03:23:21.647Z,1.60
2023-04-02T03:26:10.248Z,1.67
2023-04-02T03:28:39.689Z,1.48
2023-04-02T03:31:08.667Z,1.60
2023-04-02T03:33:41.331Z,1.65
2023-04-02T03:36:10.727Z,1.77
2023-04-02T03:38:42.155Z,1.60
2023-04-02T03:41:15.373Z,1.60
2023-04-02T03:43:47.113Z,1.40
2023-04-02T03:46:23.268Z,1.83
2023-04-02T03:48:52.467Z,1.63
2023-04-02T03:51:22.182Z,2.05
2023-04-02T03:53:48.909Z,1.80
2023-04-02T03:56:39.842Z,3.13
2023-04-02T03:59:12.356Z,2.00
2023-04-02T04:01:42.227Z,2.15
2023-04-02T04:04:17.857Z,2.63
2023-04-02T04:06:46.117Z,3.05
2023-04-02T04:09:24.883Z,2.70
2023-04-02T04:11:56.186Z,2.28
2023-04-02T04:14:30.888Z,2.00
2023-04-02T04:17:13.864Z,1.83
2023-04-02T04:19:47.606Z,1.77
2023-04-02T04:22:20.962Z,1.77
2023-04-02T04:24:47.719Z,2.03
2023-04-02T04:27:24.957Z,1.50
2023-04-02T04:29:54.158Z,1.70
2023-04-02T04:32:27.275Z,1.77
2023-04-02T04:35:01.123Z,1.30
2023-04-02T04:37:33.562Z,1.90
2023-04-02T04:40:05.868Z,1.90
2023-04-02T04:42:34.364Z,1.70
2023-04-02T04:45:06.637Z,2.05
2023-04-02T04:47:35.588Z,2.30
2023-04-02T04:50:11.536Z,1.70
2023-04-02T04:52:39.083Z,1.77
2023-04-02T04:55:24.325Z,1.48
2023-04-02T04:57:51.145Z,1.70
2023-04-02T05:00:25.735Z,1.92
2023-04-02T05:03:03.461Z,2.03
2023-04-02T05:05:31.957Z,2.15
2023-04-02T05:08:13.794Z,2.60
2023-04-02T05:11:00.635Z,2.22
2023-04-02T05:13:36.003Z,2.00
2023-04-02T05:16:18.520Z,2.17
2023-04-02T05:18:51.108Z,2.30
2023-04-02T05:21:22.032Z,1.98
2023-04-02T05:23:53.586Z,1.90
2023-04-02T05:26:30.685Z,1.63
2023-04-02T05:29:05.515Z,1.90
2023-04-02T05:31:37.777Z,1.63
2023-04-02T05:34:04.251Z,1.77
2023-04-02T05:36:31.332Z,1.70
2023-04-02T05:38:59.145Z,1.60
2023-04-02T05:41:27.054Z,1.48
2023-04-02T05:44:16.929Z,1.77
2023-04-02T05:47:03.563Z,1.73
2023-04-02T05:49:35.537Z,1.48
2023-04-02T05:52:03.471Z,1.30
2023-04-02T05:54:44.124Z,2.08
2023-04-02T05:57:13.881Z,2.05
2023-04-02T05:59:44.840Z,1.70
2023-04-02T06:02:20.454Z,1.77
2023-04-02T06:04:52.826Z,2.00
2023-04-02T06:07:23.354Z,1.92
2023-04-02T06:10:10.182Z,2.42
2023-04-02T06:12:44.966Z,2.53
2023-04-02T06:15:21.534Z,2.30
2023-04-02T06:17:48.015Z,1.60
2023-04-02T06:20:16.459Z,2.60
2023-04-02T06:22:45.310Z,2.95
2023-04-02T06:25:16.061Z,2.47
2023-04-02T06:30:14.204Z,2.08
2023-04-02T06:32:40.717Z,2.40
2023-04-02T06:35:11.747Z,2.53
2023-04-02T06:37:40.244Z,2.05
2023-04-02T06:40:16.922Z,2.80
2023-04-02T06:42:44.416Z,3.08
2023-04-02T06:45:16.649Z,2.47
2023-04-02T06:47:44.311Z,2.75
2023-04-02T06:50:10.727Z,2.80
2023-04-02T06:52:45.053Z,2.50
2023-04-02T06:55:21.678Z,2.33
2023-04-02T06:57:48.500Z,1.90
2023-04-02T07:00:26.673Z,2.10
2023-04-02T07:02:54.516Z,1.30
2023-04-02T07:05:21.018Z,1.60
2023-04-02T07:07:47.403Z,2.92
2023-04-02T07:10:13.875Z,1.50
2023-04-02T07:12:43.183Z,1.77
2023-04-02T07:15:11.681Z,1.85
2023-04-02T07:17:38.276Z,1.27
2023-04-02T07:20:04.769Z,1.10
2023-04-02T07:22:31.320Z,1.65
2023-04-02T07:24:58.721Z,1.10
2023-04-02T07:27:25.313Z,1.00
2023-04-02T07:29:51.694Z,1.77
2023-04-02T07:32:19.479Z,1.02
2023-04-02T07:34:46.000Z,1.13
2023-04-02T07:37:13.965Z,1.67
2023-04-02T07:39:40.839Z,1.25
2023-04-02T07:42:07.978Z,1.15
2023-04-02T07:44:34.363Z,1.15
2023-04-02T07:47:04.010Z,1.10
2023-04-02T07:49:30.643Z,0.80
2023-04-02T07:51:57.161Z,1.23
2023-04-02T07:54:23.582Z,1.02
2023-04-02T07:56:50.098Z,1.10
2023-04-02T07:59:16.620Z,1.20
2023-04-02T08:01:43.382Z,1.45
2023-04-02T08:04:16.729Z,1.02
2023-04-02T08:06:43.170Z,1.15
2023-04-02T08:09:09.606Z,0.85
2023-04-02T08:11:36.019Z,1.13
2023-04-02T08:14:02.456Z,0.70
2023-04-02T08:16:29.006Z,0.82
2023-04-02T08:18:55.534Z,0.75
2023-04-02T08:21:25.381Z,0.75
2023-04-02T08:23:51.890Z,1.00
2023-04-02T08:26:18.730Z,0.73
2023-04-02T08:28:45.485Z,1.02
2023-04-02T08:31:12.701Z,1.27
2023-04-02T08:33:39.241Z,0.60
2023-04-02T08:36:05.817Z,0.60
2023-04-02T08:38:35.729Z,1.02
2023-04-02T08:41:02.867Z,0.60
2023-04-02T08:43:29.243Z,0.90
2023-04-02T08:46:01.796Z,0.73
2023-04-02T08:48:33.130Z,0.95
2023-04-02T08:51:00.140Z,0.73
2023-04-02T08:53:29.592Z,2.45
2023-04-02T08:56:08.423Z,0.60
2023-04-02T08:58:42.340Z,0.68
2023-04-02T09:01:34.744Z,0.88
2023-04-02T09:04:03.299Z,0.70
2023-04-02T09:06:29.938Z,0.70
2023-04-02T09:08:57.128Z,0.80
2023-04-02T09:11:23.587Z,0.70
2023-04-02T09:13:57.327Z,0.60
2023-04-02T09:16:36.792Z,0.65
2023-04-02T09:19:12.610Z,0.75
2023-04-02T09:21:42.901Z,0.70
2023-04-02T09:24:12.109Z,1.08
2023-04-02T09:26:38.592Z,0.60
2023-04-02T09:29:07.956Z,1.15
2023-04-02T09:31:44.409Z,1.30
2023-04-02T09:34:27.191Z,1.20
2023-04-02T09:36:53.576Z,1.00
2023-04-02T09:39:21.360Z,0.98
2023-04-02T09:41:55.768Z,1.10
2023-04-02T09:44:31.518Z,0.68
2023-04-02T09:47:00.271Z,0.60
2023-04-02T09:49:31.815Z,0.65
2023-04-02T09:52:16.879Z,0.95
2023-04-02T09:54:43.547Z,0.75
2023-04-02T09:57:28.052Z,0.70
2023-04-02T10:00:25.220Z,0.65
2023-04-02T10:03:03.240Z,0.70
2023-04-02T10:08:28.188Z,0.80
2023-04-02T10:10:56.806Z,0.80
2023-04-02T10:13:26.237Z,0.60
2023-04-02T10:16:02.452Z,0.68
2023-04-02T10:18:47.507Z,0.80
2023-04-02T10:21:17.458Z,0.57
2023-04-02T10:23:44.011Z,0.70
2023-04-02T10:26:16.338Z,0.90
2023-04-02T10:29:01.417Z,0.50
2023-04-02T10:31:33.584Z,0.60
2023-04-02T10:34:02.684Z,0.77
2023-04-02T10:40:01.307Z,0.52
2023-04-02T10:42:48.555Z,0.63
2023-04-02T10:45:21.088Z,0.50
2023-04-02T10:47:53.981Z,0.85
2023-04-02T10:50:24.471Z,0.50
2023-04-02T10:52:59.966Z,0.60
2023-04-02T10:55:30.292Z,3.33
2023-04-02T10:57:59.411Z,0.88
2023-04-02T11:00:28.535Z,0.55
2023-04-02T11:03:16.571Z,0.68
2023-04-02T11:05:44.134Z,0.70
2023-04-02T11:08:22.579Z,0.50
2023-04-02T11:10:52.969Z,0.88
2023-04-02T11:13:31.267Z,0.80
2023-04-02T11:15:59.980Z,0.50
2023-04-02T11:18:28.707Z,0.90
2023-04-02T11:20:59.477Z,0.80
2023-04-02T11:23:30.589Z,0.75
2023-04-02T11:29:42.070Z,0.40
2023-04-02T11:32:14.621Z,0.63
2023-04-02T11:34:41.120Z,0.60
2023-04-02T11:37:43.234Z,0.77
2023-04-02T11:40:13.880Z,0.80
2023-04-02T11:42:54.525Z,0.75
2023-04-02T11:45:24.024Z,0.60
2023-04-02T11:47:59.705Z,0.60
2023-04-02T11:50:29.338Z,1.02
2023-04-02T11:52:58.467Z,0.60
2023-04-02T11:55:27.194Z,0.70
2023-04-02T11:58:12.505Z,0.82
2023-04-02T12:00:48.144Z,0.60
2023-04-02T12:03:17.645Z,1.00
2023-04-02T12:05:50.848Z,0.55
2023-04-02T12:08:22.627Z,0.70
2023-04-02T12:10:52.460Z,0.65
2023-04-02T12:14:01.775Z,0.70
2023-04-02T12:16:33.219Z,0.88
2023-04-02T12:19:00.204Z,0.82
2023-04-02T12:21:27.935Z,0.90
2023-04-02T12:23:58.469Z,0.75
2023-04-02T12:29:15.484Z,2.08
2023-04-02T12:31:48.265Z,1.10
2023-04-02T12:34:16.580Z,2.60
2023-04-02T12:37:12.314Z,1.42
2023-04-02T12:39:38.719Z,0.73
2023-04-02T12:42:05.361Z,0.90
2023-04-02T12:44:32.040Z,1.00
2023-04-02T12:46:58.881Z,0.70
2023-04-02T12:49:29.710Z,1.00
2023-04-02T12:51:56.942Z,1.23
2023-04-02T12:54:23.771Z,0.90
2023-04-02T12:56:50.711Z,1.17
2023-04-02T12:59:31.295Z,0.93
2023-04-02T13:01:59.517Z,0.80
2023-04-02T13:04:26.363Z,0.93
2023-04-02T13:06:55.016Z,0.82
2023-04-02T13:09:30.701Z,0.90
2023-04-02T13:12:00.386Z,0.90
2023-04-02T13:14:27.178Z,0.90
2023-04-02T13:16:53.874Z,0.73
2023-04-02T13:19:28.098Z,0.80
2023-04-02T13:21:58.246Z,0.75
2023-04-02T13:24:24.715Z,1.05
2023-04-02T13:26:53.466Z,0.90
2023-04-02T13:29:24.109Z,1.05
2023-04-02T13:31:51.602Z,0.85
2023-04-02T13:34:18.443Z,1.20
2023-04-02T13:36:45.563Z,1.00
2023-04-02T13:39:12.033Z,1.00
2023-04-02T13:41:43.418Z,1.08
2023-04-02T13:44:17.555Z,1.02
2023-04-02T13:46:44.001Z,0.90
2023-04-02T13:49:13.454Z,1.02
2023-04-02T13:51:44.680Z,0.93
2023-04-02T13:54:17.446Z,1.02
2023-04-02T13:56:44.147Z,1.08
2023-04-02T13:59:12.434Z,1.30
2023-04-02T14:01:40.606Z,1.20
2023-04-02T14:04:07.570Z,0.90
2023-04-02T14:06:37.073Z,0.98
2023-04-02T14:09:05.584Z,1.07
2023-04-02T14:11:41.316Z,0.93
2023-04-02T14:14:13.577Z,0.90
2023-04-02T14:17:00.495Z,1.30
2023-04-02T14:19:43.798Z,1.02
2023-04-02T14:22:24.057Z,1.10
2023-04-02T14:24:53.448Z,0.70
2023-04-02T14:27:19.875Z,0.98
2023-04-02T14:29:52.287Z,1.17
2023-04-02T14:32:18.627Z,1.00
2023-04-02T14:34:48.031Z,0.80
2023-04-02T14:37:36.838Z,1.00
2023-04-02T14:40:08.853Z,1.00
2023-04-02T14:42:47.280Z,1.25
2023-04-02T14:45:13.700Z,0.90
2023-04-02T14:47:46.410Z,1.40
2023-04-02T14:50:16.545Z,0.85
2023-04-02T14:52:44.709Z,0.93
2023-04-02T14:55:23.770Z,1.35
2023-04-02T14:57:53.595Z,0.88
2023-04-02T15:00:20.957Z,1.17
2023-04-02T15:02:51.600Z,1.20
2023-04-02T15:05:28.165Z,0.77
2023-04-02T15:08:12.748Z,0.80
2023-04-02T15:10:46.129Z,0.90
2023-04-02T15:13:16.680Z,1.05
2023-04-02T15:18:11.079Z,0.70
2023-04-02T15:20:47.578Z,1.05
2023-04-02T15:23:19.025Z,0.90
2023-04-02T15:25:50.319Z,0.95
2023-04-02T15:28:26.461Z,0.80
2023-04-02T15:30:54.575Z,0.82
2023-04-02T15:33:33.203Z,0.80
2023-04-02T15:35:59.627Z,0.90
2023-04-02T15:38:31.819Z,1.00
2023-04-02T15:41:10.185Z,0.80
2023-04-02T15:43:36.584Z,0.90
2023-04-02T15:46:03.017Z,1.00
2023-04-02T15:48:49.354Z,1.13
2023-04-02T15:51:30.842Z,0.63
2023-04-02T15:54:06.140Z,0.80
2023-04-02T15:56:41.697Z,0.65
2023-04-02T15:59:43.773Z,1.15
2023-04-02T16:02:12.910Z,0.40
2023-04-02T16:04:45.797Z,0.50
2023-04-02T16:07:24.632Z,0.35
2023-04-02T16:10:00.238Z,0.75
2023-04-02T16:12:27.778Z,0.60
2023-04-02T16:14:57.854Z,1.23
2023-04-02T16:17:26.778Z,0.63
2023-04-02T16:19:56.258Z,0.55
2023-04-02T16:22:26.514Z,0.50
2023-04-02T16:24:59.003Z,0.60
2023-04-02T16:27:34.543Z,0.57
2023-04-02T16:30:10.798Z,0.65
2023-04-02T16:32:52.654Z,0.50
2023-04-02T16:35:41.024Z,0.50
2023-04-02T16:38:27.868Z,0.50
2023-04-02T16:41:07.875Z,0.60
2023-04-02T16:43:35.050Z,0.57
2023-04-02T16:46:11.820Z,0.68
2023-04-02T16:48:46.727Z,0.50
2023-04-02T16:51:31.350Z,0.75
2023-04-02T16:54:02.475Z,0.75
2023-04-02T16:56:31.942Z,0.40
2023-04-02T16:59:01.583Z,0.60
2023-04-02T17:01:33.317Z,0.65
2023-04-02T17:04:20.763Z,0.60
2023-04-02T17:06:59.641Z,0.35
2023-04-02T17:09:36.900Z,0.60
2023-04-02T17:12:16.453Z,0.38
2023-04-02T17:14:48.861Z,0.98
2023-04-02T17:17:15.691Z,0.40
2023-04-02T17:19:43.651Z,0.68
2023-04-02T17:22:13.227Z,0.88
2023-04-02T17:24:41.420Z,0.57
2023-04-02T17:27:07.799Z,0.47
2023-04-02T17:29:39.281Z,0.60
2023-04-02T17:32:12.218Z,0.63
2023-04-02T17:34:38.628Z,0.45
2023-04-02T17:37:05.013Z,0.70
2023-04-02T17:39:35.803Z,0.50
2023-04-02T17:42:11.604Z,0.47
2023-04-02T17:44:43.827Z,0.52
2023-04-02T17:47:16.309Z,0.55
2023-04-02T17:49:57.645Z,0.52
2023-04-02T17:52:35.963Z,0.70
2023-04-02T17:55:27.995Z,0.60
2023-04-02T17:58:01.522Z,1.17
2023-04-02T18:00:39.831Z,0.60
2023-04-02T18:03:09.637Z,0.77
2023-04-02T18:05:44.520Z,0.90
2023-04-02T18:08:13.434Z,0.80
2023-04-02T18:10:42.802Z,0.55
2023-04-02T18:13:23.823Z,0.70
2023-04-02T18:18:16.853Z,0.60
2023-04-02T18:20:53.283Z,0.75
2023-04-02T18:23:32.410Z,0.50
2023-04-02T18:26:01.821Z,0.70
2023-04-02T18:28:43.553Z,0.60
2023-04-02T18:31:16.728Z,0.70
2023-04-02T18:33:52.739Z,0.50
2023-04-02T18:36:22.824Z,0.82
2023-04-02T18:38:52.008Z,0.70
2023-04-02T18:41:37.268Z,0.80
2023-04-02T18:44:26.808Z,0.82
2023-04-02T18:47:03.404Z,0.73
2023-04-02T18:49:53.212Z,0.70
2023-04-02T18:52:20.159Z,0.77
2023-04-02T18:54:49.332Z,0.50
2023-04-02T18:57:44.844Z,0.90
2023-04-02T19:00:20.445Z,0.63
2023-04-02T19:02:56.235Z,0.70
2023-04-02T19:05:25.701Z,0.60
2023-04-02T19:07:54.946Z,1.20
2023-04-02T19:10:35.208Z,0.70
2023-04-02T19:13:01.586Z,0.80
2023-04-02T19:15:50.807Z,1.00
2023-04-02T19:18:37.499Z,0.70
2023-04-02T19:21:15.379Z,0.82
2023-04-02T19:23:43.450Z,0.80
2023-04-02T19:26:13.484Z,0.65
2023-04-02T19:28:42.714Z,0.60
2023-04-02T19:31:09.513Z,0.77
2023-04-02T19:33:45.362Z,0.75
2023-04-02T19:36:14.764Z,0.82
2023-04-02T19:38:41.198Z,0.70
2023-04-02T19:41:26.450Z,0.68
2023-04-02T19:43:53.317Z,2.13
2023-04-02T19:46:19.795Z,0.80
2023-04-02T19:49:02.973Z,0.80
2023-04-02T19:51:29.539Z,0.77
2023-04-02T19:53:56.361Z,0.80
2023-04-02T19:56:22.785Z,1.25
2023-04-02T19:58:49.181Z,2.95
2023-04-02T20:01:15.784Z,3.88
2023-04-02T20:03:42.392Z,1.58
2023-04-02T20:06:09.019Z,1.60
2023-04-02T20:08:36.310Z,3.47
2023-04-02T20:11:03.176Z,8.13
2023-04-02T20:13:29.961Z,4.57
2023-04-02T20:16:07.100Z,6.00
2023-04-02T20:18:37.593Z,7.20
2023-04-02T20:21:04.825Z,5.43
2023-04-02T20:23:31.239Z,3.47
2023-04-02T20:25:57.816Z,2.40
2023-04-02T20:28:25.078Z,2.45
2023-04-02T20:30:51.949Z,1.88
2023-04-02T20:33:24.598Z,2.00
2023-04-02T20:35:52.884Z,2.05
2023-04-02T20:38:21.439Z,2.22
2023-04-02T20:40:53.014Z,1.80
2023-04-02T20:43:19.631Z,1.52
2023-04-02T20:45:55.053Z,1.00
2023-04-02T20:48:22.331Z,1.15
2023-04-02T20:50:49.457Z,0.90
2023-04-02T20:53:16.705Z,1.17
2023-04-02T20:55:43.847Z,1.10
2023-04-02T20:58:10.426Z,1.20
2023-04-02T21:00:37.150Z,1.40
2023-04-02T21:03:04.042Z,1.58
2023-04-02T21:05:30.570Z,1.50
2023-04-02T21:07:57.348Z,2.55
2023-04-02T21:10:24.177Z,2.45
2023-04-02T21:12:51.039Z,1.63
2023-04-02T21:15:17.501Z,1.95
2023-04-02T21:17:44.751Z,1.30
2023-04-02T21:20:12.580Z,1.23
2023-04-02T21:22:39.246Z,0.90
2023-04-02T21:25:05.898Z,1.52
2023-04-02T21:27:32.402Z,1.00
2023-04-02T21:29:58.772Z,1.40
2023-04-02T21:32:25.320Z,1.80
2023-04-02T21:34:51.765Z,1.83
2023-04-02T21:37:21.372Z,2.40
2023-04-02T21:39:48.654Z,1.70
2023-04-02T21:42:15.246Z,1.70
2023-04-02T21:44:41.708Z,1.60
2023-04-02T21:47:08.220Z,1.50
2023-04-02T21:49:34.717Z,0.93
2023-04-02T21:52:01.138Z,1.20
2023-04-02T21:54:29.656Z,1.00
2023-04-02T21:56:56.144Z,1.23
2023-04-02T21:59:22.676Z,1.10
2023-04-02T22:01:50.357Z,1.00
2023-04-02T22:04:19.052Z,1.00
2023-04-02T22:06:46.004Z,0.88
2023-04-02T22:09:14.156Z,1.00
2023-04-02T22:11:42.097Z,0.98
2023-04-02T22:14:08.562Z,0.90
2023-04-02T22:16:35.491Z,0.88
2023-04-02T22:19:03.497Z,0.90
2023-04-02T22:21:30.806Z,0.90
2023-04-02T22:23:59.460Z,0.95
2023-04-02T22:26:25.864Z,1.25
2023-04-02T22:28:52.752Z,1.70
2023-04-02T22:31:21.599Z,1.60
2023-04-02T22:33:48.118Z,1.42
2023-04-02T22:36:15.853Z,1.30
2023-04-02T22:38:42.459Z,1.35
2023-04-02T22:41:10.248Z,1.00
2023-04-02T22:43:37.277Z,1.02
2023-04-02T22:46:04.684Z,1.27
2023-04-02T22:48:31.328Z,1.30
2023-04-02T22:50:57.813Z,1.15
2023-04-02T22:53:24.497Z,1.40
2023-04-02T22:55:52.297Z,1.00
2023-04-02T22:58:19.633Z,1.38
2023-04-02T23:00:46.409Z,0.90
2023-04-02T23:03:12.922Z,0.90
2023-04-02T23:05:39.453Z,1.10
2023-04-02T23:08:06.171Z,0.98
2023-04-02T23:10:32.685Z,0.98
2023-04-02T23:12:59.052Z,0.98
2023-04-02T23:15:25.496Z,0.90
2023-04-02T23:17:52.016Z,0.77
2023-04-02T23:20:18.483Z,0.95
2023-04-02T23:22:44.876Z,0.93
2023-04-02T23:25:11.370Z,0.90
2023-04-02T23:27:37.818Z,1.17
2023-04-02T23:30:04.733Z,1.40
2023-04-02T23:32:31.211Z,1.10
2023-04-02T23:34:57.689Z,0.90
2023-04-02T23:37:24.089Z,0.80
2023-04-02T23:39:50.514Z,2.80
2023-04-02T23:42:17.481Z,0.90
2023-04-02T23:44:43.880Z,0.90
2023-04-02T23:47:10.501Z,0.60
2023-04-02T23:49:36.973Z,0.88
2023-04-02T23:52:03.390Z,0.80
2023-04-02T23:54:29.877Z,0.85
2023-04-02T23:56:56.361Z,0.60
2023-04-02T23:59:22.761Z,0.80
